Share

Gregorio Luperon International, Dominican Republic

Gregorio Luperon International (MDPP) Elev 49 ft | 19.75 °N, 70.55 °W | Change Station

Current weather conditions updated 14 minutes ago

Mostly Cloudy
Mostly Cloudy
86 °F
Feels Like 95 °F
N
7
Wind Variable Wind from Variable
Sunrise 6:20 AM
Sunset 7:02 PM
Moon Waning Gibbous

Today is forecast to be nearly the same temperature as yesterday. Thunderstorms.

Pressure 29.95 in
Visibility 6.2 miles
Clouds Scattered Clouds 2500 ft
Mostly Cloudy 30000 ft
Heat Index 95 °F
Dew Point 75 °F
Humidity 70%
Rainfall 0.00 in
Snow Depth Not available.
UV 9 out of 16
Pollen Not available.
Air Quality Not available.
Flu Activity Not available.
METAR MDPP 211600Z VRB06KT 9999 SCT025 BKN300 30/24 Q1014

More Conditions Fewer Conditions

Pressure 29.95 in
Visibility 6.2 miles
Clouds Scattered Clouds 2500 ft
Mostly Cloudy 30000 ft
Heat Index 95 °F
Dew Point 75 °F
Humidity 70%
Rainfall 0.00 in
Snow Depth Not available.
UV 9 out of 16
Pollen Not available.
Air Quality Not available.
Flu Activity Not available.
METAR MDPP 211600Z VRB06KT 9999 SCT025 BKN300 30/24 Q1014

More Conditions Fewer Conditions

10-Day Weather Forecast

Almanac

Astronomy

Apr. 21, 2014 Rise Set
Actual Time 6:20 AM AST 7:02 PM AST
Civil Twilight 5:57 AM AST 7:24 PM AST
Nautical Twilight 5:30 AM AST 7:51 PM AST
Astronomical Twilight 5:03 AM AST 8:18 PM AST
Moon 12:17 AM AST 11:53 AM AST
Length of Visible Light 13h 27m
Length of Day
12h 42m
Tomorrow will be 1m 2s longer.
Waning Gibbous, 57% of the Moon is Illuminated
Today
Waning Gibbous
Apr 22
Last Quarter
Apr 29
New
May 6
First Quarter
May 14
Full

Today's Extremes

Country Highs Country Lows

Community

  • Bright Eyes
    Bright Eyes
  • Snowy Robin
    Snowy Robin
  • Spring Crocus
    Spring Crocus
  • Sun Pillar and Geese
    Sun Pillar and Geese
  • Showers on the Way
    Showers on the Way

WunderPhotos

Upload Photos

1,703,678 photos uploaded!

Nearby

Snow Depth

Not available.

Coastal Water Temperatures

Place Temperature
No Stations Reporting

Earthquake Activity

City Distance Mag. Time & Date
No recent earthquake activity has been reported nearby.
Minimum magnitude displayed is 2.5.

Nearby Weather Stations

There are no personal weather stations in this area.

What do you think?

We're not finished. Please let us know what you like, what you don't like, and what you are still missing.